Time;durP1;ratioP1;P1;durP2;ratioP2;P2;SDS_P1;SDS_P2;PMS_P1;PMS_P2;Temp;Humidity;BMP_temperature;BMP_pressure;BME280_temperature;BME280_humidity;BME280_pressure;Samples;Min_cycle;Max_cycle;Signal;HPM_P1;HPM_P2
2022/07/18 00:00:39;;;;;;;2.93;2.73;;;;;;;;;;5033214;28;20488;-75
2022/07/18 00:03:06;;;;;;;3.60;3.20;;;;;;;;;;5032611;28;21036;-76
2022/07/18 00:05:33;;;;;;;4.60;3.00;;;;;;;;;;5033760;28;20492;-76
2022/07/18 00:08:01;;;;;;;3.27;2.97;;;;;;;;;;5033183;28;20959;-76
2022/07/18 00:10:28;;;;;;;4.40;3.13;;;;;;;;;;5049218;28;20477;-75
2022/07/18 00:12:55;;;;;;;3.40;3.10;;;;;;;;;;5052538;28;20973;-76
2022/07/18 00:15:22;;;;;;;3.93;2.73;;;;;;;;;;5052916;28;20487;-76
2022/07/18 00:17:49;;;;;;;4.97;2.50;;;;;;;;;;5053077;28;20445;-76
2022/07/18 00:20:16;;;;;;;3.60;3.30;;;;;;;;;;5053124;28;20499;-76
2022/07/18 00:22:43;;;;;;;3.17;2.53;;;;;;;;;;5052739;28;20469;-76
2022/07/18 00:25:12;;;;;;;2.90;2.70;;;;;;;;;;5052959;28;20454;-78
2022/07/18 00:27:39;;;;;;;3.20;2.90;;;;;;;;;;5052833;28;20445;-76
2022/07/18 00:30:06;;;;;;;3.03;2.73;;;;;;;;;;5053554;28;20477;-76
2022/07/18 00:32:33;;;;;;;3.00;2.80;;;;;;;;;;5053213;28;20462;-76
2022/07/18 00:35:00;;;;;;;3.10;2.90;;;;;;;;;;5052765;28;20449;-76
2022/07/18 00:37:27;;;;;;;6.33;3.13;;;;;;;;;;5052706;28;20445;-76
2022/07/18 00:39:55;;;;;;;3.30;2.93;;;;;;;;;;5052274;28;20442;-75
2022/07/18 00:42:23;;;;;;;3.00;2.80;;;;;;;;;;5052565;28;20585;-76
2022/07/18 00:44:53;;;;;;;2.97;2.77;;;;;;;;;;5051897;28;20449;-76
2022/07/18 00:47:20;;;;;;;3.93;2.93;;;;;;;;;;5052509;28;20499;-76
2022/07/18 00:49:47;;;;;;;3.10;2.80;;;;;;;;;;5051213;28;20503;-76
2022/07/18 00:52:14;;;;;;;2.90;2.70;;;;;;;;;;5052057;28;20449;-76
2022/07/18 00:54:41;;;;;;;2.77;2.57;;;;;;;;;;5051712;28;20553;-76
2022/07/18 00:57:08;;;;;;;2.90;2.70;;;;;;;;;;5051918;28;20442;-76
2022/07/18 01:02:22;;;;;;;3.03;2.57;;;;;;;;;;5050584;28;20570;-76
2022/07/18 01:04:49;;;;;;;2.73;2.53;;;;;;;;;;5050796;28;20437;-76
2022/07/18 01:07:16;;;;;;;3.07;2.80;;;;;;;;;;5052076;28;20448;-77
2022/07/18 01:09:43;;;;;;;3.20;3.00;;;;;;;;;;5051507;28;20441;-76
2022/07/18 01:12:11;;;;;;;7.13;2.80;;;;;;;;;;5051667;28;20926;-77
2022/07/18 01:14:39;;;;;;;2.83;2.63;;;;;;;;;;5051445;28;20990;-75
2022/07/18 01:17:12;;;;;;;3.40;2.67;;;;;;;;;;5051489;28;20960;-75
2022/07/18 01:19:39;;;;;;;3.00;2.80;;;;;;;;;;5051844;28;20499;-76
2022/07/18 01:22:08;;;;;;;3.73;3.07;;;;;;;;;;5051691;28;20787;-76
2022/07/18 01:24:35;;;;;;;3.70;2.67;;;;;;;;;;5052540;28;20914;-76
2022/07/18 01:27:02;;;;;;;2.73;2.53;;;;;;;;;;5053320;28;20585;-76
2022/07/18 01:29:29;;;;;;;3.33;3.03;;;;;;;;;;5052838;28;20445;-77
2022/07/18 01:31:56;;;;;;;2.60;2.40;;;;;;;;;;5051824;28;20921;-76
2022/07/18 01:34:23;;;;;;;3.00;2.80;;;;;;;;;;5051029;28;20514;-76
2022/07/18 01:36:50;;;;;;;4.70;3.57;;;;;;;;;;5051227;28;20441;-76
2022/07/18 01:39:19;;;;;;;2.70;2.50;;;;;;;;;;5052550;28;20495;-76
2022/07/18 01:41:46;;;;;;;2.80;2.60;;;;;;;;;;5051937;28;20491;-76
2022/07/18 01:44:13;;;;;;;4.30;3.60;;;;;;;;;;5051266;28;21042;-76
2022/07/18 01:46:40;;;;;;;2.90;2.70;;;;;;;;;;5051583;28;20495;-76
2022/07/18 01:49:07;;;;;;;4.03;2.67;;;;;;;;;;5051692;28;20971;-76
2022/07/18 01:51:34;;;;;;;7.57;2.80;;;;;;;;;;5051055;28;20481;-75
2022/07/18 01:54:01;;;;;;;5.43;2.63;;;;;;;;;;5050675;28;20470;-76
2022/07/18 01:56:30;;;;;;;2.80;2.50;;;;;;;;;;5051147;28;20493;-77
2022/07/18 01:58:57;;;;;;;2.80;2.60;;;;;;;;;;5051004;28;20449;-76
2022/07/18 02:01:24;;;;;;;3.07;2.87;;;;;;;;;;5050978;28;20532;-76
2022/07/18 02:03:51;;;;;;;2.80;2.60;;;;;;;;;;5050410;28;20477;-76
2022/07/18 02:06:18;;;;;;;2.60;2.40;;;;;;;;;;5051150;28;20449;-76
2022/07/18 02:08:45;;;;;;;2.60;2.40;;;;;;;;;;5049180;28;20442;-76
2022/07/18 02:11:12;;;;;;;3.50;2.97;;;;;;;;;;5031059;28;20536;-76
2022/07/18 02:13:40;;;;;;;2.90;2.60;;;;;;;;;;5030621;28;20528;-75
2022/07/18 02:16:08;;;;;;;3.67;3.07;;;;;;;;;;5030962;28;20577;-76
2022/07/18 02:18:35;;;;;;;3.37;3.07;;;;;;;;;;5031194;28;20492;-75
2022/07/18 02:21:02;;;;;;;3.13;2.93;;;;;;;;;;5031082;28;20516;-76
2022/07/18 02:23:29;;;;;;;4.03;3.70;;;;;;;;;;5030642;28;21035;-76
2022/07/18 02:25:56;;;;;;;5.13;3.20;;;;;;;;;;5030558;28;20438;-76
2022/07/18 02:28:23;;;;;;;3.53;3.30;;;;;;;;;;5030815;28;20496;-76
2022/07/18 02:30:52;;;;;;;5.57;3.50;;;;;;;;;;5030717;28;20470;-75
2022/07/18 02:33:19;;;;;;;3.67;3.37;;;;;;;;;;5030376;28;20466;-75
2022/07/18 02:35:46;;;;;;;4.10;3.00;;;;;;;;;;5031082;28;20504;-76
2022/07/18 02:38:13;;;;;;;3.00;2.80;;;;;;;;;;5031102;28;20442;-76
2022/07/18 02:40:40;;;;;;;3.40;3.17;;;;;;;;;;5030984;28;20446;-75
2022/07/18 02:43:07;;;;;;;3.77;3.47;;;;;;;;;;5030343;28;20467;-75
2022/07/18 02:45:34;;;;;;;4.97;3.17;;;;;;;;;;5030427;28;20504;-75
2022/07/18 02:48:03;;;;;;;3.50;3.20;;;;;;;;;;5030842;28;20450;-75
2022/07/18 02:50:30;;;;;;;3.43;3.13;;;;;;;;;;5030439;28;21047;-76
2022/07/18 02:52:57;;;;;;;3.87;3.57;;;;;;;;;;5030153;28;20619;-75
2022/07/18 02:55:24;;;;;;;3.03;2.83;;;;;;;;;;5030501;28;20931;-75
2022/07/18 02:57:52;;;;;;;3.10;2.90;;;;;;;;;;5030383;28;20446;-75
2022/07/18 03:00:19;;;;;;;3.73;3.30;;;;;;;;;;5030746;28;20469;-75
2022/07/18 03:02:46;;;;;;;3.70;3.40;;;;;;;;;;5030328;28;20536;-75
2022/07/18 03:05:15;;;;;;;3.40;3.10;;;;;;;;;;5030460;28;20450;-76
2022/07/18 03:07:42;;;;;;;4.00;3.67;;;;;;;;;;5030617;28;20446;-75
2022/07/18 03:10:10;;;;;;;3.10;2.90;;;;;;;;;;5043895;28;20487;-75
2022/07/18 03:12:37;;;;;;;4.47;3.23;;;;;;;;;;5050346;28;20464;-76
2022/07/18 03:15:04;;;;;;;3.07;2.87;;;;;;;;;;5054177;28;20791;-76
2022/07/18 03:17:31;;;;;;;3.30;3.00;;;;;;;;;;5054168;28;20446;-76
2022/07/18 03:19:58;;;;;;;4.43;3.53;;;;;;;;;;5053886;28;20822;-75
2022/07/18 03:22:26;;;;;;;5.80;3.60;;;;;;;;;;5053795;28;20988;-76
2022/07/18 03:24:53;;;;;;;4.17;3.73;;;;;;;;;;5053942;28;20453;-76
2022/07/18 03:27:20;;;;;;;3.73;3.43;;;;;;;;;;5053785;28;20918;-75
2022/07/18 03:29:47;;;;;;;3.97;3.50;;;;;;;;;;5053949;28;20858;-75
2022/07/18 03:32:14;;;;;;;3.67;3.33;;;;;;;;;;5053654;28;20477;-76
2022/07/18 03:34:41;;;;;;;4.17;3.43;;;;;;;;;;5053200;28;20969;-75
2022/07/18 03:37:08;;;;;;;3.60;3.30;;;;;;;;;;5053491;28;20446;-76
2022/07/18 03:39:37;;;;;;;3.90;3.57;;;;;;;;;;5053522;28;20499;-76
2022/07/18 03:42:04;;;;;;;3.80;3.50;;;;;;;;;;5053414;28;20450;-75
2022/07/18 03:44:31;;;;;;;3.90;3.60;;;;;;;;;;5053310;28;20442;-76
2022/07/18 03:46:58;;;;;;;4.20;3.80;;;;;;;;;;5053495;28;20445;-75
2022/07/18 03:49:25;;;;;;;3.93;3.60;;;;;;;;;;5052689;28;20442;-75
2022/07/18 03:51:55;;;;;;;4.30;3.90;;;;;;;;;;5053273;28;20551;-76
2022/07/18 03:54:22;;;;;;;3.97;3.60;;;;;;;;;;5053149;28;20496;-75
2022/07/18 03:56:50;;;;;;;4.10;3.70;;;;;;;;;;5053117;28;20499;-75
2022/07/18 03:59:17;;;;;;;4.70;4.10;;;;;;;;;;5053110;28;20445;-75
2022/07/18 04:01:44;;;;;;;3.90;3.50;;;;;;;;;;5053185;28;20438;-76
2022/07/18 04:04:11;;;;;;;4.57;3.60;;;;;;;;;;5052584;28;20490;-76
2022/07/18 04:06:39;;;;;;;5.00;3.90;;;;;;;;;;5053122;28;20446;-75
2022/07/18 04:09:06;;;;;;;4.70;3.57;;;;;;;;;;5048164;28;20505;-75
2022/07/18 04:11:33;;;;;;;3.70;3.40;;;;;;;;;;5033226;28;20608;-75
2022/07/18 04:14:02;;;;;;;4.23;3.87;;;;;;;;;;5032746;28;20494;-75
2022/07/18 04:16:29;;;;;;;4.50;3.70;;;;;;;;;;5032865;28;20509;-76
2022/07/18 04:18:56;;;;;;;5.53;3.77;;;;;;;;;;5033062;28;20776;-75
2022/07/18 04:21:23;;;;;;;5.70;4.10;;;;;;;;;;5032537;28;20496;-75
2022/07/18 04:23:50;;;;;;;4.10;3.80;;;;;;;;;;5032458;28;20474;-75
2022/07/18 04:26:17;;;;;;;3.80;3.37;;;;;;;;;;5032926;28;20666;-76
2022/07/18 04:28:44;;;;;;;4.23;3.83;;;;;;;;;;5041237;28;20537;-76
2022/07/18 04:31:12;;;;;;;5.30;4.10;;;;;;;;;;5053910;28;20495;-75
2022/07/18 04:33:39;;;;;;;4.83;3.90;;;;;;;;;;5060077;28;20477;-75
2022/07/18 04:36:07;;;;;;;6.00;4.50;;;;;;;;;;5056392;28;20973;-76
2022/07/18 04:38:37;;;;;;;4.73;4.27;;;;;;;;;;5045527;28;20504;-76
2022/07/18 04:41:04;;;;;;;7.27;4.20;;;;;;;;;;5032909;28;20435;-75
2022/07/18 04:43:31;;;;;;;4.60;4.20;;;;;;;;;;5032121;28;20513;-76
2022/07/18 04:45:58;;;;;;;6.10;5.00;;;;;;;;;;5032548;28;20446;-75
2022/07/18 04:48:26;;;;;;;5.20;3.87;;;;;;;;;;5032122;28;20532;-76
2022/07/18 04:50:53;;;;;;;6.40;4.97;;;;;;;;;;5032388;28;20715;-75
2022/07/18 04:53:20;;;;;;;5.43;4.30;;;;;;;;;;5032473;28;20516;-75
2022/07/18 04:55:47;;;;;;;6.50;4.53;;;;;;;;;;5032202;28;20853;-76
2022/07/18 04:58:14;;;;;;;4.63;4.17;;;;;;;;;;5032234;28;20446;-76
2022/07/18 05:00:42;;;;;;;4.50;4.10;;;;;;;;;;5031822;28;20951;-76
2022/07/18 05:03:09;;;;;;;4.90;4.17;;;;;;;;;;5031440;28;20520;-75
2022/07/18 05:05:37;;;;;;;4.63;4.27;;;;;;;;;;5032372;28;20439;-76
2022/07/18 05:08:05;;;;;;;5.30;4.90;;;;;;;;;;5032227;28;20451;-76
2022/07/18 05:10:32;;;;;;;8.50;4.87;;;;;;;;;;5048392;28;20445;-76
2022/07/18 05:12:59;;;;;;;5.03;4.53;;;;;;;;;;5051394;28;20531;-76
2022/07/18 05:15:27;;;;;;;4.40;4.00;;;;;;;;;;5051690;28;20473;-76
2022/07/18 05:17:54;;;;;;;5.50;4.10;;;;;;;;;;5051821;28;20454;-75
2022/07/18 05:20:22;;;;;;;6.13;5.30;;;;;;;;;;5051749;28;20445;-76
2022/07/18 05:22:51;;;;;;;4.47;4.07;;;;;;;;;;5051337;28;20587;-75
2022/07/18 05:25:19;;;;;;;5.20;4.77;;;;;;;;;;5051486;28;20442;-75
2022/07/18 05:27:46;;;;;;;5.23;4.00;;;;;;;;;;5051260;28;20449;-75
2022/07/18 05:30:14;;;;;;;4.30;3.77;;;;;;;;;;5051228;28;20446;-77
2022/07/18 05:32:42;;;;;;;5.10;4.07;;;;;;;;;;5051419;28;20492;-76
2022/07/18 05:35:10;;;;;;;4.20;3.80;;;;;;;;;;5051495;28;20441;-76
2022/07/18 05:37:38;;;;;;;6.27;4.40;;;;;;;;;;5051125;28;20452;-77
2022/07/18 05:40:08;;;;;;;9.53;4.10;;;;;;;;;;5052121;28;20445;-76
2022/07/18 05:42:36;;;;;;;5.47;4.37;;;;;;;;;;5064310;28;20458;-76
2022/07/18 05:45:03;;;;;;;5.00;4.10;;;;;;;;;;5065007;28;20445;-75
2022/07/18 05:47:30;;;;;;;10.50;4.30;;;;;;;;;;5065139;28;20446;-75
2022/07/18 05:49:57;;;;;;;8.50;4.70;;;;;;;;;;5065044;28;20437;-76
2022/07/18 05:52:24;;;;;;;7.73;4.47;;;;;;;;;;5064858;28;20481;-75
2022/07/18 05:54:51;;;;;;;5.07;3.90;;;;;;;;;;5056046;28;20491;-76
2022/07/18 05:57:19;;;;;;;4.50;4.10;;;;;;;;;;5051225;28;20513;-76
2022/07/18 05:59:46;;;;;;;5.30;4.53;;;;;;;;;;5051487;28;20453;-76
2022/07/18 06:02:14;;;;;;;9.10;5.20;;;;;;;;;;5051354;28;20479;-77
2022/07/18 06:04:41;;;;;;;7.10;4.80;;;;;;;;;;5051107;28;20456;-76
2022/07/18 06:07:08;;;;;;;5.80;4.23;;;;;;;;;;5051262;28;20445;-76
2022/07/18 06:09:37;;;;;;;9.07;4.63;;;;;;;;;;5042343;28;20701;-76
2022/07/18 06:12:04;;;;;;;6.50;4.77;;;;;;;;;;5030632;28;20858;-76
2022/07/18 06:14:32;;;;;;;5.77;4.00;;;;;;;;;;5031124;28;20454;-76
2022/07/18 06:16:59;;;;;;;6.07;4.43;;;;;;;;;;5031204;28;20480;-76
2022/07/18 06:19:26;;;;;;;7.23;4.87;;;;;;;;;;5031546;28;20965;-76
2022/07/18 06:21:53;;;;;;;6.30;4.67;;;;;;;;;;5031039;28;20501;-76
2022/07/18 06:24:20;;;;;;;6.83;4.70;;;;;;;;;;5030640;28;20470;-76
2022/07/18 06:26:49;;;;;;;5.23;4.83;;;;;;;;;;5031483;28;20521;-76
2022/07/18 06:29:16;;;;;;;6.13;4.20;;;;;;;;;;5031260;28;20447;-76
2022/07/18 06:31:45;;;;;;;5.70;4.57;;;;;;;;;;5031170;28;20535;-75
2022/07/18 06:34:12;;;;;;;8.23;5.63;;;;;;;;;;5030403;28;20477;-77
2022/07/18 06:36:39;;;;;;;5.00;4.30;;;;;;;;;;5031043;28;20492;-76
2022/07/18 06:39:10;;;;;;;4.77;4.37;;;;;;;;;;5031073;28;21093;-76
2022/07/18 06:41:37;;;;;;;6.60;4.83;;;;;;;;;;5031399;28;20481;-76
2022/07/18 06:44:04;;;;;;;7.80;4.57;;;;;;;;;;5035070;28;20782;-75
2022/07/18 06:46:31;;;;;;;5.33;4.80;;;;;;;;;;5033977;28;20801;-76
2022/07/18 06:49:00;;;;;;;5.83;4.83;;;;;;;;;;5036592;28;20433;-75
2022/07/18 06:51:27;;;;;;;8.03;5.03;;;;;;;;;;5035674;28;20877;-78
2022/07/18 06:53:54;;;;;;;6.47;4.80;;;;;;;;;;5034530;28;20517;-76
2022/07/18 06:56:21;;;;;;;5.13;4.63;;;;;;;;;;5034743;28;20438;-77
2022/07/18 06:58:50;;;;;;;5.33;4.70;;;;;;;;;;5034872;28;20825;-75
2022/07/18 07:01:17;;;;;;;4.83;4.40;;;;;;;;;;5034556;28;20443;-76
2022/07/18 07:03:44;;;;;;;7.20;4.90;;;;;;;;;;5034926;28;20842;-75
2022/07/18 07:06:12;;;;;;;4.10;3.80;;;;;;;;;;5034195;28;20504;-76
2022/07/18 07:08:39;;;;;;;5.90;4.90;;;;;;;;;;5035560;28;20434;-78
2022/07/18 07:11:07;;;;;;;5.00;4.50;;;;;;;;;;5054130;28;20445;-75
2022/07/18 07:13:34;;;;;;;6.20;4.20;;;;;;;;;;5053717;28;20481;-76
2022/07/18 07:16:01;;;;;;;9.70;4.77;;;;;;;;;;5054143;28;20446;-76
2022/07/18 07:18:28;;;;;;;6.20;4.60;;;;;;;;;;5053847;28;20986;-77
2022/07/18 07:20:55;;;;;;;7.10;4.90;;;;;;;;;;5054130;28;20446;-76
2022/07/18 07:23:24;;;;;;;13.87;5.30;;;;;;;;;;5046352;28;20469;-76
2022/07/18 07:25:51;;;;;;;4.90;4.50;;;;;;;;;;5051054;28;20513;-77
2022/07/18 07:28:18;;;;;;;5.17;4.67;;;;;;;;;;5050716;28;20452;-76
2022/07/18 07:30:45;;;;;;;5.20;4.20;;;;;;;;;;5045209;28;20482;-76
2022/07/18 07:33:12;;;;;;;5.40;5.00;;;;;;;;;;5041406;28;20488;-75
2022/07/18 07:35:39;;;;;;;8.90;5.03;;;;;;;;;;5045751;28;20922;-76
2022/07/18 07:38:06;;;;;;;11.03;4.73;;;;;;;;;;5033807;28;20516;-77
2022/07/18 07:40:35;;;;;;;4.63;4.23;;;;;;;;;;5039877;28;20445;-78
2022/07/18 07:43:08;;;;;;;7.70;4.53;;;;;;;;;;5051067;28;20454;-77
2022/07/18 07:45:36;;;;;;;4.47;4.03;;;;;;;;;;5033235;28;20508;-76
2022/07/18 07:48:03;;;;;;;5.30;4.80;;;;;;;;;;5033704;28;20473;-76
2022/07/18 07:50:30;;;;;;;6.73;4.27;;;;;;;;;;5033590;28;20500;-76
2022/07/18 07:52:57;;;;;;;5.50;4.30;;;;;;;;;;5033059;28;20573;-76
2022/07/18 07:55:25;;;;;;;7.97;4.70;;;;;;;;;;5033515;28;20501;-77
2022/07/18 07:57:53;;;;;;;4.33;3.97;;;;;;;;;;5033166;28;20458;-76
2022/07/18 08:00:20;;;;;;;8.83;4.30;;;;;;;;;;5032621;28;20811;-77
2022/07/18 08:02:52;;;;;;;4.40;4.00;;;;;;;;;;5033012;28;20470;-77
2022/07/18 08:05:19;;;;;;;4.50;4.10;;;;;;;;;;5033440;28;20473;-76
2022/07/18 08:07:46;;;;;;;6.40;4.57;;;;;;;;;;5033257;28;20488;-74
2022/07/18 08:10:13;;;;;;;5.87;4.40;;;;;;;;;;5046977;28;20468;-75
2022/07/18 08:12:40;;;;;;;4.60;4.20;;;;;;;;;;5052667;28;20508;-77
2022/07/18 08:15:09;;;;;;;4.50;4.20;;;;;;;;;;5053311;28;20446;-77
2022/07/18 08:17:36;;;;;;;8.70;3.90;;;;;;;;;;5052851;28;20457;-76
2022/07/18 08:20:04;;;;;;;5.37;4.07;;;;;;;;;;5053435;28;20441;-77
2022/07/18 08:22:31;;;;;;;5.33;4.77;;;;;;;;;;5052779;28;20469;-76
2022/07/18 08:24:58;;;;;;;4.23;3.90;;;;;;;;;;5052782;28;20872;-76
2022/07/18 08:27:25;;;;;;;7.00;4.40;;;;;;;;;;5052605;28;20503;-76
2022/07/18 08:29:52;;;;;;;5.90;4.10;;;;;;;;;;5052774;28;20453;-77
2022/07/18 08:32:20;;;;;;;6.80;3.77;;;;;;;;;;5052751;28;20478;-77
2022/07/18 08:34:47;;;;;;;4.30;3.33;;;;;;;;;;5052813;28;20453;-77
2022/07/18 08:37:14;;;;;;;8.50;4.00;;;;;;;;;;5052320;28;20943;-77
2022/07/18 08:39:41;;;;;;;3.70;3.30;;;;;;;;;;5052371;28;20445;-77
2022/07/18 08:42:09;;;;;;;4.40;4.00;;;;;;;;;;5052988;28;20487;-77
2022/07/18 08:44:37;;;;;;;4.37;3.67;;;;;;;;;;5051529;28;20465;-77
2022/07/18 08:47:05;;;;;;;8.17;3.90;;;;;;;;;;5041822;28;20452;-77
2022/07/18 08:49:35;;;;;;;5.40;3.73;;;;;;;;;;5052116;28;20441;-78
2022/07/18 08:52:02;;;;;;;6.03;3.27;;;;;;;;;;5048300;28;20441;-78
2022/07/18 08:54:29;;;;;;;3.33;3.13;;;;;;;;;;5052728;28;21318;-77
2022/07/18 08:56:56;;;;;;;6.50;3.97;;;;;;;;;;5052790;28;20449;-77
2022/07/18 08:59:23;;;;;;;4.57;3.30;;;;;;;;;;5052659;28;20442;-76
2022/07/18 09:01:50;;;;;;;3.80;3.17;;;;;;;;;;5051932;28;20446;-76
2022/07/18 09:04:32;;;;;;;3.57;3.03;;;;;;;;;;5051944;28;20469;-76
2022/07/18 09:07:00;;;;;;;4.70;3.13;;;;;;;;;;5053287;28;20456;-77
2022/07/18 09:09:27;;;;;;;3.73;3.23;;;;;;;;;;5053598;28;20492;-76
2022/07/18 09:11:55;;;;;;;3.30;3.00;;;;;;;;;;5052694;28;20535;-77
2022/07/18 09:14:29;;;;;;;3.83;3.23;;;;;;;;;;5052775;28;20477;-77
2022/07/18 09:17:00;;;;;;;3.83;3.30;;;;;;;;;;5052957;28;20445;-76
2022/07/18 09:19:27;;;;;;;3.30;3.03;;;;;;;;;;5052464;28;20449;-76
2022/07/18 09:21:54;;;;;;;5.00;2.90;;;;;;;;;;5052273;28;20442;-77
2022/07/18 09:24:23;;;;;;;3.10;2.80;;;;;;;;;;5051955;28;20523;-76
2022/07/18 09:26:52;;;;;;;3.73;2.70;;;;;;;;;;5059167;28;20445;-76
2022/07/18 09:29:19;;;;;;;3.00;2.80;;;;;;;;;;5059319;28;20860;-76
2022/07/18 09:31:49;;;;;;;2.80;2.60;;;;;;;;;;5041642;28;20934;-76
2022/07/18 09:34:33;;;;;;;5.27;2.80;;;;;;;;;;5051531;28;20551;-76
2022/07/18 09:37:00;;;;;;;2.40;2.20;;;;;;;;;;5051653;28;20907;-75
2022/07/18 09:39:29;;;;;;;3.00;2.70;;;;;;;;;;5051997;28;20441;-76
2022/07/18 09:42:13;;;;;;;2.80;2.40;;;;;;;;;;5051947;28;20469;-76
2022/07/18 09:44:40;;;;;;;3.43;2.40;;;;;;;;;;5051500;28;20438;-76
2022/07/18 09:47:07;;;;;;;2.07;1.97;;;;;;;;;;5051184;28;20870;-76
2022/07/18 09:49:36;;;;;;;6.80;2.67;;;;;;;;;;5051615;28;20446;-76
2022/07/18 09:52:04;;;;;;;2.23;2.03;;;;;;;;;;5051613;28;20445;-76
2022/07/18 09:54:38;;;;;;;3.00;2.43;;;;;;;;;;5051631;28;20469;-76
2022/07/18 09:57:05;;;;;;;2.77;2.50;;;;;;;;;;5052181;28;20525;-75
2022/07/18 09:59:33;;;;;;;2.37;2.27;;;;;;;;;;5055942;28;20437;-76
2022/07/18 10:02:00;;;;;;;2.67;2.47;;;;;;;;;;5056868;28;20445;-78
2022/07/18 10:04:27;;;;;;;2.50;2.30;;;;;;;;;;5056741;28;20964;-76
2022/07/18 10:06:55;;;;;;;2.50;2.30;;;;;;;;;;5054469;28;20495;-76
2022/07/18 10:09:22;;;;;;;4.33;2.73;;;;;;;;;;5053328;28;20445;-76
2022/07/18 10:11:50;;;;;;;8.20;2.40;;;;;;;;;;5052536;28;20929;-76
2022/07/18 10:14:18;;;;;;;3.53;2.63;;;;;;;;;;5052878;28;20481;-77
2022/07/18 10:16:45;;;;;;;2.37;2.17;;;;;;;;;;5053046;28;20441;-76
2022/07/18 10:19:13;;;;;;;2.53;2.40;;;;;;;;;;5053062;28;20442;-76
2022/07/18 10:21:41;;;;;;;2.53;2.43;;;;;;;;;;5053520;28;20445;-77
2022/07/18 10:24:08;;;;;;;3.00;2.67;;;;;;;;;;5058555;28;20465;-77
2022/07/18 10:26:35;;;;;;;2.73;2.53;;;;;;;;;;5055895;28;20495;-77
2022/07/18 10:29:15;;;;;;;2.57;2.37;;;;;;;;;;5056043;28;20453;-76
2022/07/18 10:32:00;;;;;;;2.10;1.93;;;;;;;;;;5054834;28;20441;-77
2022/07/18 10:34:30;;;;;;;3.37;2.30;;;;;;;;;;5054451;28;20473;-77
2022/07/18 10:37:08;;;;;;;2.07;1.97;;;;;;;;;;5055124;28;20441;-77
2022/07/18 10:39:36;;;;;;;2.10;2.00;;;;;;;;;;5054793;28;20491;-77
2022/07/18 10:42:24;;;;;;;2.23;2.13;;;;;;;;;;5054706;28;21162;-77
2022/07/18 10:44:53;;;;;;;2.50;2.10;;;;;;;;;;5054559;28;20441;-77
2022/07/18 10:47:23;;;;;;;2.10;2.00;;;;;;;;;;5054765;28;20441;-77
2022/07/18 10:50:17;;;;;;;2.03;1.93;;;;;;;;;;5055400;28;20468;-76
2022/07/18 10:52:59;;;;;;;1.90;1.80;;;;;;;;;;5029922;28;21242;-76
2022/07/18 10:55:33;;;;;;;2.10;1.90;;;;;;;;;;5054706;28;20448;-76
2022/07/18 10:58:19;;;;;;;1.60;1.50;;;;;;;;;;5055041;28;20448;-77
2022/07/18 11:00:48;;;;;;;1.40;1.40;;;;;;;;;;5054412;28;20437;-76
2022/07/18 11:03:17;;;;;;;2.23;2.03;;;;;;;;;;5054016;28;20519;-76
2022/07/18 11:05:45;;;;;;;2.23;2.10;;;;;;;;;;5054257;28;20441;-76
2022/07/18 11:08:19;;;;;;;1.90;1.80;;;;;;;;;;5054562;28;20520;-75
2022/07/18 11:11:04;;;;;;;2.13;1.90;;;;;;;;;;5054667;28;20487;-76
2022/07/18 11:13:32;;;;;;;1.90;1.80;;;;;;;;;;5054379;28;20960;-76
2022/07/18 11:16:04;;;;;;;1.70;1.60;;;;;;;;;;5055620;28;20485;-76
2022/07/18 11:18:32;;;;;;;1.83;1.73;;;;;;;;;;5059437;28;20430;-76
2022/07/18 11:20:59;;;;;;;1.87;1.70;;;;;;;;;;5059643;28;20449;-76
2022/07/18 11:23:26;;;;;;;1.80;1.70;;;;;;;;;;5058474;28;20491;-76
2022/07/18 11:25:55;;;;;;;2.37;1.50;;;;;;;;;;5060164;28;20934;-77
2022/07/18 11:28:23;;;;;;;1.80;1.70;;;;;;;;;;5059814;28;20887;-76
2022/07/18 11:31:02;;;;;;;2.03;1.90;;;;;;;;;;5059998;28;20525;-76
2022/07/18 11:33:30;;;;;;;1.70;1.60;;;;;;;;;;5058288;28;20516;-76
2022/07/18 11:36:03;;;;;;;1.30;1.30;;;;;;;;;;5055720;28;20445;-76
2022/07/18 11:38:30;;;;;;;1.77;1.60;;;;;;;;;;5054184;28;20475;-75
2022/07/18 11:41:00;;;;;;;1.40;1.30;;;;;;;;;;5053985;28;20442;-76
2022/07/18 11:43:27;;;;;;;1.87;1.70;;;;;;;;;;5053471;28;20461;-75
2022/07/18 11:46:03;;;;;;;3.60;1.70;;;;;;;;;;5043532;28;20441;-75
2022/07/18 11:48:30;;;;;;;1.47;1.37;;;;;;;;;;5053436;28;20453;-75
2022/07/18 11:50:57;;;;;;;1.47;1.33;;;;;;;;;;5052495;28;20442;-77
2022/07/18 11:53:24;;;;;;;4.77;1.97;;;;;;;;;;5052490;28;20505;-76
2022/07/18 11:55:52;;;;;;;1.80;1.70;;;;;;;;;;5053217;28;20499;-77
2022/07/18 11:58:19;;;;;;;1.37;1.27;;;;;;;;;;5052720;28;20464;-77
2022/07/18 12:00:46;;;;;;;1.23;1.23;;;;;;;;;;5052269;28;20803;-76
2022/07/18 12:03:16;;;;;;;3.30;1.90;;;;;;;;;;5052108;28;20829;-78
2022/07/18 12:05:44;;;;;;;1.60;1.50;;;;;;;;;;5052207;28;20769;-76
2022/07/18 12:08:27;;;;;;;1.60;1.50;;;;;;;;;;5052720;28;20967;-76
2022/07/18 12:11:03;;;;;;;0.97;0.97;;;;;;;;;;5060658;28;20442;-75
2022/07/18 12:13:40;;;;;;;1.80;1.47;;;;;;;;;;5057605;28;20882;-75
2022/07/18 12:16:07;;;;;;;3.47;1.43;;;;;;;;;;5052221;28;20441;-76
2022/07/18 12:18:35;;;;;;;1.53;1.43;;;;;;;;;;5052303;28;20445;-78
2022/07/18 12:21:09;;;;;;;1.43;1.33;;;;;;;;;;5052420;28;20561;-76
2022/07/18 12:23:36;;;;;;;2.53;1.60;;;;;;;;;;5051824;28;20537;-76
2022/07/18 12:26:03;;;;;;;2.10;1.90;;;;;;;;;;5052132;28;20442;-77
2022/07/18 12:28:30;;;;;;;1.53;1.43;;;;;;;;;;5051948;28;20449;-76
2022/07/18 12:30:57;;;;;;;1.50;1.40;;;;;;;;;;5052023;28;20445;-76
2022/07/18 12:33:24;;;;;;;1.70;1.60;;;;;;;;;;5051567;28;20469;-76
2022/07/18 12:36:00;;;;;;;1.33;1.20;;;;;;;;;;5051885;28;20441;-76
2022/07/18 12:38:27;;;;;;;1.47;1.37;;;;;;;;;;5051905;28;20809;-76
2022/07/18 12:40:57;;;;;;;10.23;1.70;;;;;;;;;;5052151;28;20441;-76
2022/07/18 12:43:26;;;;;;;2.03;1.80;;;;;;;;;;5051806;28;20473;-77
2022/07/18 12:45:53;;;;;;;2.13;2.03;;;;;;;;;;5050977;28;20445;-77
2022/07/18 12:48:20;;;;;;;1.80;1.70;;;;;;;;;;5043937;28;20458;-76
2022/07/18 12:50:47;;;;;;;2.97;1.80;;;;;;;;;;5041449;28;20446;-76
2022/07/18 12:53:16;;;;;;;1.80;1.70;;;;;;;;;;5043264;28;20453;-77
2022/07/18 12:55:43;;;;;;;3.03;2.00;;;;;;;;;;5051508;28;20445;-75
2022/07/18 12:58:10;;;;;;;2.17;2.03;;;;;;;;;;5051282;28;20495;-76
2022/07/18 13:00:37;;;;;;;1.83;1.73;;;;;;;;;;5036342;28;20434;-77
2022/07/18 13:03:04;;;;;;;5.73;1.83;;;;;;;;;;5049832;28;20472;-77
2022/07/18 13:05:31;;;;;;;1.70;1.60;;;;;;;;;;5052108;28;20632;-77
2022/07/18 13:07:58;;;;;;;1.93;1.83;;;;;;;;;;5051680;28;20490;-78
2022/07/18 13:10:27;;;;;;;2.30;2.10;;;;;;;;;;5051769;28;20436;-77
2022/07/18 13:12:54;;;;;;;1.73;1.63;;;;;;;;;;5050606;28;20825;-77
2022/07/18 13:15:21;;;;;;;1.83;1.70;;;;;;;;;;5051344;28;20499;-77
2022/07/18 13:17:49;;;;;;;3.50;1.80;;;;;;;;;;5051360;28;20448;-77
2022/07/18 13:20:16;;;;;;;1.60;1.60;;;;;;;;;;5051699;28;20433;-76
2022/07/18 13:22:43;;;;;;;2.10;1.90;;;;;;;;;;5051350;28;20489;-77
2022/07/18 13:25:11;;;;;;;1.50;1.40;;;;;;;;;;5051157;28;20495;-76
2022/07/18 13:27:40;;;;;;;1.83;1.50;;;;;;;;;;5051327;28;20487;-76
2022/07/18 13:30:09;;;;;;;1.90;1.80;;;;;;;;;;5051080;28;20998;-78
2022/07/18 13:32:36;;;;;;;1.53;1.53;;;;;;;;;;5051300;28;20552;-77
2022/07/18 13:35:04;;;;;;;1.73;1.63;;;;;;;;;;5051300;28;21045;-77
2022/07/18 13:37:31;;;;;;;2.83;1.77;;;;;;;;;;5051429;28;20445;-76
2022/07/18 13:39:58;;;;;;;2.23;1.70;;;;;;;;;;5051367;28;20445;-78
2022/07/18 13:42:25;;;;;;;2.83;1.87;;;;;;;;;;5051434;28;20457;-77
2022/07/18 13:44:53;;;;;;;2.43;1.77;;;;;;;;;;5050992;28;20503;-76
2022/07/18 13:47:20;;;;;;;1.93;1.83;;;;;;;;;;5051791;28;20445;-77
2022/07/18 13:49:47;;;;;;;4.37;2.33;;;;;;;;;;5051777;28;20929;-77
2022/07/18 13:52:14;;;;;;;3.80;1.87;;;;;;;;;;5051778;28;20444;-77
2022/07/18 13:54:42;;;;;;;2.73;1.90;;;;;;;;;;5051270;28;20890;-77
2022/07/18 13:57:09;;;;;;;1.90;1.80;;;;;;;;;;5050865;28;20540;-76
2022/07/18 13:59:36;;;;;;;2.30;2.10;;;;;;;;;;5050678;28;20559;-76
2022/07/18 14:02:04;;;;;;;3.47;2.00;;;;;;;;;;5050417;28;20555;-77
2022/07/18 14:04:31;;;;;;;2.63;1.70;;;;;;;;;;5050630;28;20445;-77
2022/07/18 14:06:58;;;;;;;3.23;2.13;;;;;;;;;;5050304;28;20998;-77
2022/07/18 14:09:25;;;;;;;3.33;1.90;;;;;;;;;;5050209;28;20501;-76
2022/07/18 14:11:53;;;;;;;2.13;2.03;;;;;;;;;;5050106;28;20984;-77
2022/07/18 14:14:20;;;;;;;8.13;2.50;;;;;;;;;;5050171;28;20858;-76
2022/07/18 14:16:47;;;;;;;3.00;2.03;;;;;;;;;;5050268;28;21040;-77
2022/07/18 14:19:15;;;;;;;4.73;2.10;;;;;;;;;;5050032;28;20436;-76
2022/07/18 14:21:42;;;;;;;2.23;2.13;;;;;;;;;;5050383;28;20507;-78
2022/07/18 14:24:09;;;;;;;3.20;1.60;;;;;;;;;;5050159;28;20521;-78
2022/07/18 14:26:36;;;;;;;2.00;1.90;;;;;;;;;;5057336;28;20445;-76
2022/07/18 14:29:03;;;;;;;2.30;2.20;;;;;;;;;;5059726;28;20463;-76
2022/07/18 14:31:30;;;;;;;6.60;1.93;;;;;;;;;;5059832;28;20494;-77
2022/07/18 14:33:57;;;;;;;3.00;1.73;;;;;;;;;;5058089;28;20456;-76
2022/07/18 14:36:26;;;;;;;5.50;2.10;;;;;;;;;;5060876;28;20913;-76
2022/07/18 14:38:53;;;;;;;2.27;2.07;;;;;;;;;;5058185;28;20441;-77
2022/07/18 14:41:20;;;;;;;2.70;2.10;;;;;;;;;;5050459;28;20448;-76
2022/07/18 14:43:47;;;;;;;3.47;1.73;;;;;;;;;;5049515;28;20858;-77
2022/07/18 14:46:14;;;;;;;3.33;2.17;;;;;;;;;;5049865;28;20873;-76
2022/07/18 14:48:41;;;;;;;3.20;2.00;;;;;;;;;;5050083;28;20441;-77
2022/07/18 14:51:08;;;;;;;2.20;2.00;;;;;;;;;;5050031;28;20449;-77